sensor_id;sensor_type;location;lat;lon;timestamp;pressure;altitude;pressure_sealevel;temperature;humidity
7824;BME280;3957;48.61947800;9.05303100;2023-03-03T00:00:40;96185.59;;;-0.62;100.00
7824;BME280;3957;48.61947800;9.05303100;2023-03-03T00:01:40;96188.94;;;-0.60;100.00
7824;BME280;3957;48.61947800;9.05303100;2023-03-03T00:02:41;96186.97;;;-0.58;100.00
7824;BME280;3957;48.61947800;9.05303100;2023-03-03T00:03:41;96187.84;;;-0.58;100.00
7824;BME280;3957;48.61947800;9.05303100;2023-03-03T00:04:42;96189.63;;;-0.58;100.00
7824;BME280;3957;48.61947800;9.05303100;2023-03-03T00:05:42;96189.47;;;-0.57;100.00
7824;BME280;3957;48.61947800;9.05303100;2023-03-03T00:06:44;96186.03;;;-0.57;100.00
7824;BME280;3957;48.61947800;9.05303100;2023-03-03T00:07:44;96187.84;;;-0.58;100.00
7824;BME280;3957;48.61947800;9.05303100;2023-03-03T00:08:45;96186.97;;;-0.58;100.00
7824;BME280;3957;48.61947800;9.05303100;2023-03-03T00:09:46;96191.69;;;-0.62;100.00
7824;BME280;3957;48.61947800;9.05303100;2023-03-03T00:10:47;96188.94;;;-0.60;100.00
7824;BME280;3957;48.61947800;9.05303100;2023-03-03T00:11:53;96189.63;;;-0.58;100.00
7824;BME280;3957;48.61947800;9.05303100;2023-03-03T00:12:54;96191.41;;;-0.59;100.00
7824;BME280;3957;48.61947800;9.05303100;2023-03-03T00:13:55;96193.22;;;-0.59;100.00
7824;BME280;3957;48.61947800;9.05303100;2023-03-03T00:14:56;96189.06;;;-0.62;100.00
7824;BME280;3957;48.61947800;9.05303100;2023-03-03T00:16:12;96184.50;;;-0.60;100.00
7824;BME280;3957;48.61947800;9.05303100;2023-03-03T00:17:21;96191.28;;;-0.57;100.00
7824;BME280;3957;48.61947800;9.05303100;2023-03-03T00:18:34;96194.72;;;-0.57;100.00
7824;BME280;3957;48.61947800;9.05303100;2023-03-03T00:19:37;96195.44;;;-0.55;100.00
7824;BME280;3957;48.61947800;9.05303100;2023-03-03T00:20:39;96190.19;;;-0.55;100.00
7824;BME280;3957;48.61947800;9.05303100;2023-03-03T00:21:42;96188.53;;;-0.56;100.00
7824;BME280;3957;48.61947800;9.05303100;2023-03-03T00:22:44;96192.00;;;-0.55;100.00
7824;BME280;3957;48.61947800;9.05303100;2023-03-03T00:23:44;96188.06;;;-0.61;100.00
7824;BME280;3957;48.61947800;9.05303100;2023-03-03T00:24:45;96189.44;;;-0.66;100.00
7824;BME280;3957;48.61947800;9.05303100;2023-03-03T00:25:49;96181.00;;;-0.70;100.00
7824;BME280;3957;48.61947800;9.05303100;2023-03-03T00:27:50;96188.47;;;-0.65;100.00
7824;BME280;3957;48.61947800;9.05303100;2023-03-03T00:28:54;96193.88;;;-0.67;100.00
7824;BME280;3957;48.61947800;9.05303100;2023-03-03T00:29:57;96193.88;;;-0.67;100.00
7824;BME280;3957;48.61947800;9.05303100;2023-03-03T00:31:00;96197.31;;;-0.66;100.00
7824;BME280;3957;48.61947800;9.05303100;2023-03-03T00:34:32;96196.78;;;-0.70;100.00
7824;BME280;3957;48.61947800;9.05303100;2023-03-03T00:35:33;96196.91;;;-0.72;100.00
7824;BME280;3957;48.61947800;9.05303100;2023-03-03T00:36:38;96195.09;;;-0.71;100.00
7824;BME280;3957;48.61947800;9.05303100;2023-03-03T00:37:40;96192.47;;;-0.71;100.00
7824;BME280;3957;48.61947800;9.05303100;2023-03-03T00:38:41;96199.66;;;-0.73;100.00
7824;BME280;3957;48.61947800;9.05303100;2023-03-03T00:39:42;96198.00;;;-0.74;100.00
7824;BME280;3957;48.61947800;9.05303100;2023-03-03T00:40:42;96199.78;;;-0.75;100.00
7824;BME280;3957;48.61947800;9.05303100;2023-03-03T00:41:43;96199.66;;;-0.73;100.00
7824;BME280;3957;48.61947800;9.05303100;2023-03-03T00:45:50;96199.25;;;-0.69;100.00
7824;BME280;3957;48.61947800;9.05303100;2023-03-03T00:46:51;96199.13;;;-0.67;100.00
7824;BME280;3957;48.61947800;9.05303100;2023-03-03T00:47:54;96190.03;;;-0.63;100.00
7824;BME280;3957;48.61947800;9.05303100;2023-03-03T00:48:55;96196.09;;;-0.62;100.00
7824;BME280;3957;48.61947800;9.05303100;2023-03-03T00:50:26;96189.88;;;-0.61;100.00
7824;BME280;3957;48.61947800;9.05303100;2023-03-03T00:51:29;96184.63;;;-0.61;100.00
7824;BME280;3957;48.61947800;9.05303100;2023-03-03T00:52:33;96193.47;;;-0.62;100.00
7824;BME280;3957;48.61947800;9.05303100;2023-03-03T00:53:34;96189.88;;;-0.61;100.00
7824;BME280;3957;48.61947800;9.05303100;2023-03-03T00:54:34;96188.34;;;-0.64;100.00
7824;BME280;3957;48.61947800;9.05303100;2023-03-03T00:55:35;96186.94;;;-0.68;100.00
7824;BME280;3957;48.61947800;9.05303100;2023-03-03T00:56:35;96193.28;;;-0.71;100.00
7824;BME280;3957;48.61947800;9.05303100;2023-03-03T00:57:36;96191.88;;;-0.75;100.00
7824;BME280;3957;48.61947800;9.05303100;2023-03-03T00:58:38;96187.03;;;-0.79;100.00
7824;BME280;3957;48.61947800;9.05303100;2023-03-03T00:59:39;96187.56;;;-0.86;100.00
7824;BME280;3957;48.61947800;9.05303100;2023-03-03T01:00:40;96191.78;;;-0.94;100.00
7824;BME280;3957;48.61947800;9.05303100;2023-03-03T01:01:42;96187.75;;;-0.98;100.00
7824;BME280;3957;48.61947800;9.05303100;2023-03-03T01:02:42;96188.03;;;-1.01;100.00
7824;BME280;3957;48.61947800;9.05303100;2023-03-03T01:03:45;96186.75;;;-1.07;100.00
7824;BME280;3957;48.61947800;9.05303100;2023-03-03T01:04:49;96185.34;;;-1.11;100.00
7824;BME280;3957;48.61947800;9.05303100;2023-03-03T01:05:51;96191.69;;;-1.14;100.00
7824;BME280;3957;48.61947800;9.05303100;2023-03-03T01:06:51;96183.22;;;-1.17;100.00
7824;BME280;3957;48.61947800;9.05303100;2023-03-03T01:07:52;96193.03;;;-1.20;100.00
7824;BME280;3957;48.61947800;9.05303100;2023-03-03T01:08:52;96184.44;;;-1.22;100.00
7824;BME280;3957;48.61947800;9.05303100;2023-03-03T01:09:53;96188.16;;;-1.24;100.00
7824;BME280;3957;48.61947800;9.05303100;2023-03-03T01:10:56;96187.44;;;-1.26;100.00
7824;BME280;3957;48.61947800;9.05303100;2023-03-03T01:11:58;96190.22;;;-1.28;100.00
7824;BME280;3957;48.61947800;9.05303100;2023-03-03T01:12:59;96185.22;;;-1.31;100.00
7824;BME280;3957;48.61947800;9.05303100;2023-03-03T01:13:59;96189.88;;;-1.34;100.00
7824;BME280;3957;48.61947800;9.05303100;2023-03-03T01:15:01;96187.53;;;-1.38;100.00
7824;BME280;3957;48.61947800;9.05303100;2023-03-03T01:16:02;96190.41;;;-1.41;100.00
7824;BME280;3957;48.61947800;9.05303100;2023-03-03T01:17:03;96187.91;;;-1.42;100.00
7824;BME280;3957;48.61947800;9.05303100;2023-03-03T01:18:03;96185.50;;;-1.45;100.00
7824;BME280;3957;48.61947800;9.05303100;2023-03-03T01:19:04;96191.03;;;-1.48;100.00
7824;BME280;3957;48.61947800;9.05303100;2023-03-03T01:20:06;96186.03;;;-1.51;100.00
7824;BME280;3957;48.61947800;9.05303100;2023-03-03T01:21:08;96190.56;;;-1.54;100.00
7824;BME280;3957;48.61947800;9.05303100;2023-03-03T01:22:08;96202.03;;;-1.55;100.00
7824;BME280;3957;48.61947800;9.05303100;2023-03-03T01:23:09;96198.81;;;-1.58;100.00
7824;BME280;3957;48.61947800;9.05303100;2023-03-03T01:24:09;96192.03;;;-1.61;100.00
7824;BME280;3957;48.61947800;9.05303100;2023-03-03T01:25:10;96196.47;;;-1.61;100.00
7824;BME280;3957;48.61947800;9.05303100;2023-03-03T01:26:11;96188.00;;;-1.65;100.00
7824;BME280;3957;48.61947800;9.05303100;2023-03-03T01:27:12;96189.06;;;-1.67;100.00
7824;BME280;3957;48.61947800;9.05303100;2023-03-03T01:28:13;96194.56;;;-1.71;100.00
7824;BME280;3957;48.61947800;9.05303100;2023-03-03T01:29:13;96198.53;;;-1.76;100.00
7824;BME280;3957;48.61947800;9.05303100;2023-03-03T01:30:14;96189.94;;;-1.78;100.00
7824;BME280;3957;48.61947800;9.05303100;2023-03-03T01:31:15;96190.31;;;-1.83;100.00
7824;BME280;3957;48.61947800;9.05303100;2023-03-03T01:32:15;96190.72;;;-1.88;100.00
7824;BME280;3957;48.61947800;9.05303100;2023-03-03T01:33:16;96187.38;;;-1.90;100.00
7824;BME280;3957;48.61947800;9.05303100;2023-03-03T01:34:18;96188.69;;;-1.95;100.00
7824;BME280;3957;48.61947800;9.05303100;2023-03-03T01:35:19;96188.81;;;-1.97;100.00
7824;BME280;3957;48.61947800;9.05303100;2023-03-03T01:36:24;96186.31;;;-1.98;100.00
7824;BME280;3957;48.61947800;9.05303100;2023-03-03T01:37:25;96189.22;;;-2.01;100.00
7824;BME280;3957;48.61947800;9.05303100;2023-03-03T01:38:25;96189.69;;;-2.08;100.00
7824;BME280;3957;48.61947800;9.05303100;2023-03-03T01:39:26;96188.25;;;-2.12;100.00
7824;BME280;3957;48.61947800;9.05303100;2023-03-03T01:40:29;96187.69;;;-2.15;100.00
7824;BME280;3957;48.61947800;9.05303100;2023-03-03T01:41:30;96182.91;;;-2.22;100.00
7824;BME280;3957;48.61947800;9.05303100;2023-03-03T01:42:34;96188.53;;;-2.26;100.00
7824;BME280;3957;48.61947800;9.05303100;2023-03-03T01:43:43;96193.19;;;-2.30;100.00
7824;BME280;3957;48.61947800;9.05303100;2023-03-03T01:44:45;96188.19;;;-2.33;100.00
7824;BME280;3957;48.61947800;9.05303100;2023-03-03T01:47:14;96184.97;;;-2.36;100.00
7824;BME280;3957;48.61947800;9.05303100;2023-03-03T01:48:21;96191.28;;;-2.39;100.00
7824;BME280;3957;48.61947800;9.05303100;2023-03-03T01:49:29;96189.75;;;-2.42;100.00
7824;BME280;3957;48.61947800;9.05303100;2023-03-03T01:51:10;96188.09;;;-2.43;100.00
7824;BME280;3957;48.61947800;9.05303100;2023-03-03T01:52:04;96181.53;;;-2.48;100.00
7824;BME280;3957;48.61947800;9.05303100;2023-03-03T01:53:23;96190.47;;;-2.51;100.00
7824;BME280;3957;48.61947800;9.05303100;2023-03-03T01:54:37;96188.66;;;-2.50;100.00
7824;BME280;3957;48.61947800;9.05303100;2023-03-03T01:55:40;96188.66;;;-2.50;100.00
7824;BME280;3957;48.61947800;9.05303100;2023-03-03T01:56:42;96191.41;;;-2.52;100.00
7824;BME280;3957;48.61947800;9.05303100;2023-03-03T01:57:46;96190.72;;;-2.54;100.00
7824;BME280;3957;48.61947800;9.05303100;2023-03-03T01:59:04;96183.06;;;-2.57;100.00
7824;BME280;3957;48.61947800;9.05303100;2023-03-03T02:00:06;96185.69;;;-2.57;100.00
7824;BME280;3957;48.61947800;9.05303100;2023-03-03T02:01:15;96186.88;;;-2.61;100.00
7824;BME280;3957;48.61947800;9.05303100;2023-03-03T02:02:18;96186.88;;;-2.61;100.00
7824;BME280;3957;48.61947800;9.05303100;2023-03-03T02:03:19;96184.38;;;-2.63;100.00
7824;BME280;3957;48.61947800;9.05303100;2023-03-03T02:04:22;96179.16;;;-2.63;100.00
7824;BME280;3957;48.61947800;9.05303100;2023-03-03T02:05:23;96179.28;;;-2.64;100.00
7824;BME280;3957;48.61947800;9.05303100;2023-03-03T02:06:28;96181.06;;;-2.65;100.00
7824;BME280;3957;48.61947800;9.05303100;2023-03-03T02:07:30;96180.22;;;-2.65;100.00
7824;BME280;3957;48.61947800;9.05303100;2023-03-03T02:08:50;96180.13;;;-2.64;100.00
7824;BME280;3957;48.61947800;9.05303100;2023-03-03T02:09:58;96181.78;;;-2.63;100.00
7824;BME280;3957;48.61947800;9.05303100;2023-03-03T02:11:03;96180.13;;;-2.64;100.00
7824;BME280;3957;48.61947800;9.05303100;2023-03-03T02:12:07;96173.34;;;-2.66;100.00
7824;BME280;3957;48.61947800;9.05303100;2023-03-03T02:13:08;96176.78;;;-2.66;100.00
7824;BME280;3957;48.61947800;9.05303100;2023-03-03T02:14:10;96177.38;;;-2.62;100.00
7824;BME280;3957;48.61947800;9.05303100;2023-03-03T02:15:31;96179.16;;;-2.63;100.00
7824;BME280;3957;48.61947800;9.05303100;2023-03-03T02:16:32;96170.59;;;-2.65;100.00
7824;BME280;3957;48.61947800;9.05303100;2023-03-03T02:17:33;96172.47;;;-2.67;100.00
7824;BME280;3957;48.61947800;9.05303100;2023-03-03T02:18:33;96177.03;;;-2.69;100.00
7824;BME280;3957;48.61947800;9.05303100;2023-03-03T02:19:55;96171.66;;;-2.67;100.00
7824;BME280;3957;48.61947800;9.05303100;2023-03-03T02:21:08;96173.09;;;-2.63;100.00
7824;BME280;3957;48.61947800;9.05303100;2023-03-03T02:22:10;96173.91;;;-2.63;100.00
7824;BME280;3957;48.61947800;9.05303100;2023-03-03T02:23:40;96166.06;;;-2.63;100.00
7824;BME280;3957;48.61947800;9.05303100;2023-03-03T02:24:52;96167.72;;;-2.62;100.00
7824;BME280;3957;48.61947800;9.05303100;2023-03-03T02:26:57;96167.72;;;-2.62;100.00
7824;BME280;3957;48.61947800;9.05303100;2023-03-03T02:27:58;96164.97;;;-2.60;100.00
7824;BME280;3957;48.61947800;9.05303100;2023-03-03T02:28:59;96164.97;;;-2.60;100.00
7824;BME280;3957;48.61947800;9.05303100;2023-03-03T02:30:10;96166.78;;;-2.61;100.00
7824;BME280;3957;48.61947800;9.05303100;2023-03-03T02:31:16;96166.91;;;-2.62;100.00
7824;BME280;3957;48.61947800;9.05303100;2023-03-03T02:32:17;96160.00;;;-2.63;100.00
7824;BME280;3957;48.61947800;9.05303100;2023-03-03T02:33:18;96161.78;;;-2.64;100.00
7824;BME280;3957;48.61947800;9.05303100;2023-03-03T02:34:18;96162.50;;;-2.62;100.00
7824;BME280;3957;48.61947800;9.05303100;2023-03-03T02:35:30;96159.16;;;-2.64;100.00
7824;BME280;3957;48.61947800;9.05303100;2023-03-03T02:36:34;96160.13;;;-2.65;100.00
7824;BME280;3957;48.61947800;9.05303100;2023-03-03T02:37:35;96161.19;;;-2.67;100.00
7824;BME280;3957;48.61947800;9.05303100;2023-03-03T02:38:44;96156.19;;;-2.70;100.00
7824;BME280;3957;48.61947800;9.05303100;2023-03-03T02:39:47;96163.31;;;-2.72;100.00
7824;BME280;3957;48.61947800;9.05303100;2023-03-03T02:40:59;96155.84;;;-2.77;100.00
7824;BME280;3957;48.61947800;9.05303100;2023-03-03T02:43:18;96152.97;;;-2.85;100.00
7824;BME280;3957;48.61947800;9.05303100;2023-03-03T02:44:24;96156.66;;;-2.88;100.00
7824;BME280;3957;48.61947800;9.05303100;2023-03-03T02:45:24;96168.94;;;-2.88;100.00
7824;BME280;3957;48.61947800;9.05303100;2023-03-03T02:46:26;96162.97;;;-2.91;100.00
7824;BME280;3957;48.61947800;9.05303100;2023-03-03T02:47:27;96166.53;;;-2.92;100.00
7824;BME280;3957;48.61947800;9.05303100;2023-03-03T02:48:27;96157.97;;;-2.94;100.00
7824;BME280;3957;48.61947800;9.05303100;2023-03-03T02:49:31;96159.88;;;-2.96;100.00
7824;BME280;3957;48.61947800;9.05303100;2023-03-03T02:50:32;96155.72;;;-2.98;100.00
7824;BME280;3957;48.61947800;9.05303100;2023-03-03T02:51:33;96163.56;;;-2.98;100.00
7824;BME280;3957;48.61947800;9.05303100;2023-03-03T02:52:34;96160.09;;;-2.99;100.00
7824;BME280;3957;48.61947800;9.05303100;2023-03-03T02:53:35;96157.50;;;-2.99;100.00
7824;BME280;3957;48.61947800;9.05303100;2023-03-03T02:54:36;96160.09;;;-2.99;100.00
7824;BME280;3957;48.61947800;9.05303100;2023-03-03T02:55:37;96163.56;;;-2.98;100.00
7824;BME280;3957;48.61947800;9.05303100;2023-03-03T02:56:39;96160.22;;;-3.00;100.00
7824;BME280;3957;48.61947800;9.05303100;2023-03-03T02:57:40;96163.66;;;-3.00;100.00
7824;BME280;3957;48.61947800;9.05303100;2023-03-03T02:58:40;96156.78;;;-3.01;100.00
7824;BME280;3957;48.61947800;9.05303100;2023-03-03T02:59:41;96164.66;;;-3.01;100.00
7824;BME280;3957;48.61947800;9.05303100;2023-03-03T03:00:45;96161.91;;;-2.99;100.00
7824;BME280;3957;48.61947800;9.05303100;2023-03-03T03:01:48;96166.06;;;-2.97;100.00
7824;BME280;3957;48.61947800;9.05303100;2023-03-03T03:02:51;96164.16;;;-2.95;100.00
7824;BME280;3957;48.61947800;9.05303100;2023-03-03T03:03:52;96170.00;;;-2.91;100.00
7824;BME280;3957;48.61947800;9.05303100;2023-03-03T03:04:55;96169.63;;;-2.86;100.00
7824;BME280;3957;48.61947800;9.05303100;2023-03-03T03:05:57;96171.66;;;-2.79;100.00
7824;BME280;3957;48.61947800;9.05303100;2023-03-03T03:06:58;96176.41;;;-2.72;100.00
7824;BME280;3957;48.61947800;9.05303100;2023-03-03T03:08:01;96169.66;;;-2.64;100.00
7824;BME280;3957;48.61947800;9.05303100;2023-03-03T03:09:05;96177.00;;;-2.58;100.00
7824;BME280;3957;48.61947800;9.05303100;2023-03-03T03:10:06;96179.88;;;-2.49;100.00
7824;BME280;3957;48.61947800;9.05303100;2023-03-03T03:11:10;96179.16;;;-2.40;100.00
7824;BME280;3957;48.61947800;9.05303100;2023-03-03T03:12:11;96177.19;;;-2.27;100.00
7824;BME280;3957;48.61947800;9.05303100;2023-03-03T03:13:12;96177.44;;;-2.18;100.00
7824;BME280;3957;48.61947800;9.05303100;2023-03-03T03:14:13;96171.06;;;-2.05;100.00
7824;BME280;3957;48.61947800;9.05303100;2023-03-03T03:15:14;96171.41;;;-1.98;100.00
7824;BME280;3957;48.61947800;9.05303100;2023-03-03T03:16:15;96168.44;;;-1.93;100.00
7824;BME280;3957;48.61947800;9.05303100;2023-03-03T03:17:15;96168.66;;;-1.85;100.00
7824;BME280;3957;48.61947800;9.05303100;2023-03-03T03:18:17;96170.50;;;-1.76;100.00
7824;BME280;3957;48.61947800;9.05303100;2023-03-03T03:19:18;96169.41;;;-1.73;100.00
7824;BME280;3957;48.61947800;9.05303100;2023-03-03T03:20:19;96164.03;;;-1.72;100.00
7824;BME280;3957;48.61947800;9.05303100;2023-03-03T03:21:19;96166.06;;;-1.64;100.00
7824;BME280;3957;48.61947800;9.05303100;2023-03-03T03:22:20;96163.16;;;-1.61;100.00
7824;BME280;3957;48.61947800;9.05303100;2023-03-03T03:23:20;96166.50;;;-1.59;100.00
7824;BME280;3957;48.61947800;9.05303100;2023-03-03T03:24:21;96162.78;;;-1.56;100.00
7824;BME280;3957;48.61947800;9.05303100;2023-03-03T03:25:28;96165.50;;;-1.46;100.00
7824;BME280;3957;48.61947800;9.05303100;2023-03-03T03:26:29;96168.69;;;-1.43;100.00
7824;BME280;3957;48.61947800;9.05303100;2023-03-03T03:27:30;96166.78;;;-1.41;100.00
7824;BME280;3957;48.61947800;9.05303100;2023-03-03T03:28:31;96162.81;;;-1.35;100.00
7824;BME280;3957;48.61947800;9.05303100;2023-03-03T03:29:31;96172.91;;;-1.30;100.00
7824;BME280;3957;48.61947800;9.05303100;2023-03-03T03:30:32;96163.97;;;-1.28;100.00
7824;BME280;3957;48.61947800;9.05303100;2023-03-03T03:31:32;96171.19;;;-1.20;100.00
7824;BME280;3957;48.61947800;9.05303100;2023-03-03T03:32:32;96167.47;;;-1.17;100.00
7824;BME280;3957;48.61947800;9.05303100;2023-03-03T03:33:34;96164.72;;;-1.16;100.00
7824;BME280;3957;48.61947800;9.05303100;2023-03-03T03:34:35;96160.94;;;-1.23;100.00
7824;BME280;3957;48.61947800;9.05303100;2023-03-03T03:35:37;96155.94;;;-1.26;100.00
7824;BME280;3957;48.61947800;9.05303100;2023-03-03T03:36:38;96157.03;;;-1.29;100.00
7824;BME280;3957;48.61947800;9.05303100;2023-03-03T03:37:39;96164.78;;;-1.27;100.00
7824;BME280;3957;48.61947800;9.05303100;2023-03-03T03:38:39;96163.97;;;-1.28;100.00
7824;BME280;3957;48.61947800;9.05303100;2023-03-03T03:39:41;96170.22;;;-1.19;100.00
7824;BME280;3957;48.61947800;9.05303100;2023-03-03T03:40:42;96161.78;;;-1.23;100.00
7824;BME280;3957;48.61947800;9.05303100;2023-03-03T03:41:43;96162.34;;;-1.19;100.00
7824;BME280;3957;48.61947800;9.05303100;2023-03-03T03:42:43;96157.81;;;-1.17;100.00
7824;BME280;3957;48.61947800;9.05303100;2023-03-03T03:43:44;96165.56;;;-1.15;100.00
7824;BME280;3957;48.61947800;9.05303100;2023-03-03T03:44:45;96164.59;;;-1.14;100.00
7824;BME280;3957;48.61947800;9.05303100;2023-03-03T03:45:45;96166.25;;;-1.13;100.00
7824;BME280;3957;48.61947800;9.05303100;2023-03-03T03:46:47;96168.56;;;-1.20;100.00
7824;BME280;3957;48.61947800;9.05303100;2023-03-03T03:47:47;96166.59;;;-1.28;100.00
7824;BME280;3957;48.61947800;9.05303100;2023-03-03T03:48:49;96175.47;;;-1.19;100.00
7824;BME280;3957;48.61947800;9.05303100;2023-03-03T03:49:52;96172.03;;;-1.20;100.00
7824;BME280;3957;48.61947800;9.05303100;2023-03-03T03:50:52;96167.38;;;-1.16;100.00
7824;BME280;3957;48.61947800;9.05303100;2023-03-03T03:51:54;96170.34;;;-1.21;100.00
7824;BME280;3957;48.61947800;9.05303100;2023-03-03T03:52:58;96170.09;;;-1.17;100.00
7824;BME280;3957;48.61947800;9.05303100;2023-03-03T03:53:58;96167.47;;;-1.17;100.00
7824;BME280;3957;48.61947800;9.05303100;2023-03-03T03:54:59;96180.59;;;-1.17;100.00
7824;BME280;3957;48.61947800;9.05303100;2023-03-03T03:55:59;96172.84;;;-1.19;100.00
7824;BME280;3957;48.61947800;9.05303100;2023-03-03T03:57:00;96172.72;;;-1.17;100.00
7824;BME280;3957;48.61947800;9.05303100;2023-03-03T03:58:02;96175.25;;;-1.16;100.00
7824;BME280;3957;48.61947800;9.05303100;2023-03-03T03:59:05;96171.06;;;-1.18;100.00
7824;BME280;3957;48.61947800;9.05303100;2023-03-03T04:00:06;96172.59;;;-1.16;100.00
7824;BME280;3957;48.61947800;9.05303100;2023-03-03T04:01:14;96168.38;;;-1.07;100.00
7824;BME280;3957;48.61947800;9.05303100;2023-03-03T04:02:19;96184.13;;;-1.07;100.00
7824;BME280;3957;48.61947800;9.05303100;2023-03-03T04:03:20;96178.09;;;-0.98;100.00
7824;BME280;3957;48.61947800;9.05303100;2023-03-03T04:04:21;96171.72;;;-0.95;100.00
7824;BME280;3957;48.61947800;9.05303100;2023-03-03T04:05:23;96172.44;;;-0.93;100.00
7824;BME280;3957;48.61947800;9.05303100;2023-03-03T04:06:24;96181.56;;;-0.97;100.00
7824;BME280;3957;48.61947800;9.05303100;2023-03-03T04:07:25;96174.50;;;-0.97;100.00
7824;BME280;3957;48.61947800;9.05303100;2023-03-03T04:08:26;96177.25;;;-0.98;100.00
7824;BME280;3957;48.61947800;9.05303100;2023-03-03T04:09:27;96180.00;;;-1.00;100.00
7824;BME280;3957;48.61947800;9.05303100;2023-03-03T04:10:28;96177.13;;;-0.97;100.00
7824;BME280;3957;48.61947800;9.05303100;2023-03-03T04:11:29;96179.75;;;-0.97;100.00
7824;BME280;3957;48.61947800;9.05303100;2023-03-03T04:12:29;96179.06;;;-0.99;100.00
7824;BME280;3957;48.61947800;9.05303100;2023-03-03T04:13:35;96180.00;;;-1.00;100.00
7824;BME280;3957;48.61947800;9.05303100;2023-03-03T04:14:38;96179.19;;;-1.00;100.00
7824;BME280;3957;48.61947800;9.05303100;2023-03-03T04:15:39;96179.19;;;-1.00;100.00
7824;BME280;3957;48.61947800;9.05303100;2023-03-03T04:16:39;96183.59;;;-1.01;100.00
7824;BME280;3957;48.61947800;9.05303100;2023-03-03T04:17:41;96176.56;;;-1.00;100.00
7824;BME280;3957;48.61947800;9.05303100;2023-03-03T04:18:42;96181.81;;;-1.00;100.00
7824;BME280;3957;48.61947800;9.05303100;2023-03-03T04:19:43;96174.91;;;-1.01;100.00
7824;BME280;3957;48.61947800;9.05303100;2023-03-03T04:20:43;96167.97;;;-1.03;100.00
7824;BME280;3957;48.61947800;9.05303100;2023-03-03T04:21:44;96174.06;;;-1.02;100.00
7824;BME280;3957;48.61947800;9.05303100;2023-03-03T04:22:44;96168.81;;;-1.02;100.00
7824;BME280;3957;48.61947800;9.05303100;2023-03-03T04:23:45;96167.41;;;-1.06;100.00
7824;BME280;3957;48.61947800;9.05303100;2023-03-03T04:24:45;96170.41;;;-1.11;100.00
7824;BME280;3957;48.61947800;9.05303100;2023-03-03T04:25:48;96178.16;;;-1.09;100.00
7824;BME280;3957;48.61947800;9.05303100;2023-03-03T04:26:49;96176.13;;;-1.06;100.00
7824;BME280;3957;48.61947800;9.05303100;2023-03-03T04:27:50;96176.94;;;-1.05;100.00
7824;BME280;3957;48.61947800;9.05303100;2023-03-03T04:28:53;96175.97;;;-1.04;100.00
7824;BME280;3957;48.61947800;9.05303100;2023-03-03T04:29:54;96175.84;;;-1.03;100.00
7824;BME280;3957;48.61947800;9.05303100;2023-03-03T04:30:56;96180.16;;;-1.01;100.00
7824;BME280;3957;48.61947800;9.05303100;2023-03-03T04:31:58;96175.72;;;-1.01;100.00
7824;BME280;3957;48.61947800;9.05303100;2023-03-03T04:32:58;96174.06;;;-1.02;100.00
7824;BME280;3957;48.61947800;9.05303100;2023-03-03T04:34:00;96177.53;;;-1.01;100.00
7824;BME280;3957;48.61947800;9.05303100;2023-03-03T04:35:01;96173.94;;;-1.00;100.00
7824;BME280;3957;48.61947800;9.05303100;2023-03-03T04:36:04;96176.44;;;-0.99;100.00
7824;BME280;3957;48.61947800;9.05303100;2023-03-03T04:37:04;96180.59;;;-0.96;100.00
7824;BME280;3957;48.61947800;9.05303100;2023-03-03T04:38:05;96184.19;;;-0.97;100.00
7824;BME280;3957;48.61947800;9.05303100;2023-03-03T04:39:05;96179.75;;;-0.97;100.00
7824;BME280;3957;48.61947800;9.05303100;2023-03-03T04:40:07;96182.25;;;-0.95;100.00
7824;BME280;3957;48.61947800;9.05303100;2023-03-03T04:41:08;96185.59;;;-0.93;100.00
7824;BME280;3957;48.61947800;9.05303100;2023-03-03T04:42:11;96175.91;;;-0.93;100.00
7824;BME280;3957;48.61947800;9.05303100;2023-03-03T04:43:11;96178.53;;;-0.93;100.00
7824;BME280;3957;48.61947800;9.05303100;2023-03-03T04:44:12;96185.44;;;-0.92;100.00
7824;BME280;3957;48.61947800;9.05303100;2023-03-03T04:45:12;96186.41;;;-0.93;100.00
7824;BME280;3957;48.61947800;9.05303100;2023-03-03T04:46:13;96187.94;;;-0.90;100.00
7824;BME280;3957;48.61947800;9.05303100;2023-03-03T04:47:14;96193.19;;;-0.90;100.00
7824;BME280;3957;48.61947800;9.05303100;2023-03-03T04:48:14;96187.13;;;-0.91;100.00
7824;BME280;3957;48.61947800;9.05303100;2023-03-03T04:49:15;96191.53;;;-0.91;100.00
7824;BME280;3957;48.61947800;9.05303100;2023-03-03T04:50:16;96183.53;;;-0.90;100.00
7824;BME280;3957;48.61947800;9.05303100;2023-03-03T04:51:17;96194.75;;;-0.88;100.00
7824;BME280;3957;48.61947800;9.05303100;2023-03-03T04:52:19;96194.75;;;-0.88;100.00
7824;BME280;3957;48.61947800;9.05303100;2023-03-03T04:53:19;96192.94;;;-0.87;100.00
7824;BME280;3957;48.61947800;9.05303100;2023-03-03T04:54:20;96192.09;;;-0.88;100.00
7824;BME280;3957;48.61947800;9.05303100;2023-03-03T04:55:20;96200.72;;;-0.86;100.00
7824;BME280;3957;48.61947800;9.05303100;2023-03-03T04:56:22;96193.50;;;-0.83;100.00
7824;BME280;3957;48.61947800;9.05303100;2023-03-03T04:57:23;96201.41;;;-0.83;100.00
7824;BME280;3957;48.61947800;9.05303100;2023-03-03T04:58:24;96188.25;;;-0.83;100.00
7824;BME280;3957;48.61947800;9.05303100;2023-03-03T04:59:25;96189.22;;;-0.84;100.00
7824;BME280;3957;48.61947800;9.05303100;2023-03-03T05:00:26;96192.56;;;-0.82;100.00
7824;BME280;3957;48.61947800;9.05303100;2023-03-03T05:01:27;96190.75;;;-0.82;100.00
7824;BME280;3957;48.61947800;9.05303100;2023-03-03T05:02:28;96190.88;;;-0.83;100.00
7824;BME280;3957;48.61947800;9.05303100;2023-03-03T05:03:29;96193.38;;;-0.82;100.00
7824;BME280;3957;48.61947800;9.05303100;2023-03-03T05:04:30;96192.44;;;-0.81;100.00
7824;BME280;3957;48.61947800;9.05303100;2023-03-03T05:05:30;96194.91;;;-0.79;100.00
7824;BME280;3957;48.61947800;9.05303100;2023-03-03T05:06:30;96200.03;;;-0.78;100.00